sensor_id;sensor_type;location;lat;lon;timestamp;P1;durP1;ratioP1;P2;durP2;ratioP2
12707;SDS011;6418;50.824;4.718;2022-09-16T00:00:52;9.67;;;3.37;;
12707;SDS011;6418;50.824;4.718;2022-09-16T00:03:20;7.27;;;2.80;;
12707;SDS011;6418;50.824;4.718;2022-09-16T00:05:47;9.43;;;3.10;;
12707;SDS011;6418;50.824;4.718;2022-09-16T00:08:16;9.10;;;3.33;;
12707;SDS011;6418;50.824;4.718;2022-09-16T00:10:44;10.83;;;3.40;;
12707;SDS011;6418;50.824;4.718;2022-09-16T00:13:11;8.47;;;3.17;;
12707;SDS011;6418;50.824;4.718;2022-09-16T00:15:40;9.93;;;3.17;;
12707;SDS011;6418;50.824;4.718;2022-09-16T00:18:09;8.83;;;3.00;;
12707;SDS011;6418;50.824;4.718;2022-09-16T00:20:41;7.20;;;3.00;;
12707;SDS011;6418;50.824;4.718;2022-09-16T00:23:08;7.17;;;2.73;;
12707;SDS011;6418;50.824;4.718;2022-09-16T00:25:35;7.63;;;2.83;;
12707;SDS011;6418;50.824;4.718;2022-09-16T00:28:02;10.00;;;3.17;;
12707;SDS011;6418;50.824;4.718;2022-09-16T00:30:29;9.53;;;3.23;;
12707;SDS011;6418;50.824;4.718;2022-09-16T00:32:56;8.90;;;3.07;;
12707;SDS011;6418;50.824;4.718;2022-09-16T00:35:24;6.07;;;2.97;;
12707;SDS011;6418;50.824;4.718;2022-09-16T00:37:51;8.20;;;2.67;;
12707;SDS011;6418;50.824;4.718;2022-09-16T00:40:18;11.03;;;3.07;;
12707;SDS011;6418;50.824;4.718;2022-09-16T00:42:45;10.23;;;3.73;;
12707;SDS011;6418;50.824;4.718;2022-09-16T00:45:14;10.43;;;3.00;;
12707;SDS011;6418;50.824;4.718;2022-09-16T00:47:44;10.50;;;2.97;;
12707;SDS011;6418;50.824;4.718;2022-09-16T00:50:17;8.03;;;2.87;;
12707;SDS011;6418;50.824;4.718;2022-09-16T00:52:49;9.50;;;3.30;;
12707;SDS011;6418;50.824;4.718;2022-09-16T00:55:18;6.73;;;2.87;;
12707;SDS011;6418;50.824;4.718;2022-09-16T00:57:48;8.67;;;3.30;;
12707;SDS011;6418;50.824;4.718;2022-09-16T01:00:17;9.67;;;3.23;;
12707;SDS011;6418;50.824;4.718;2022-09-16T01:02:44;12.70;;;3.57;;
12707;SDS011;6418;50.824;4.718;2022-09-16T01:05:12;6.93;;;2.80;;
12707;SDS011;6418;50.824;4.718;2022-09-16T01:07:42;8.70;;;2.60;;
12707;SDS011;6418;50.824;4.718;2022-09-16T01:10:11;11.67;;;3.00;;
12707;SDS011;6418;50.824;4.718;2022-09-16T01:12:40;9.13;;;3.20;;
12707;SDS011;6418;50.824;4.718;2022-09-16T01:15:09;8.47;;;3.60;;
12707;SDS011;6418;50.824;4.718;2022-09-16T01:17:42;11.50;;;3.27;;
12707;SDS011;6418;50.824;4.718;2022-09-16T01:20:43;7.77;;;3.27;;
12707;SDS011;6418;50.824;4.718;2022-09-16T01:24:00;10.33;;;3.20;;
12707;SDS011;6418;50.824;4.718;2022-09-16T01:30:03;10.23;;;3.30;;
12707;SDS011;6418;50.824;4.718;2022-09-16T01:32:42;10.07;;;3.37;;
12707;SDS011;6418;50.824;4.718;2022-09-16T01:35:23;9.30;;;3.33;;
12707;SDS011;6418;50.824;4.718;2022-09-16T01:38:00;8.30;;;3.23;;
12707;SDS011;6418;50.824;4.718;2022-09-16T01:40:37;7.33;;;3.37;;
12707;SDS011;6418;50.824;4.718;2022-09-16T01:43:13;6.43;;;3.07;;
12707;SDS011;6418;50.824;4.718;2022-09-16T01:45:47;7.67;;;3.23;;
12707;SDS011;6418;50.824;4.718;2022-09-16T01:48:21;10.73;;;3.60;;
12707;SDS011;6418;50.824;4.718;2022-09-16T01:50:54;7.93;;;3.33;;
12707;SDS011;6418;50.824;4.718;2022-09-16T01:53:26;12.97;;;3.77;;
12707;SDS011;6418;50.824;4.718;2022-09-16T01:56:02;10.33;;;3.40;;
12707;SDS011;6418;50.824;4.718;2022-09-16T01:58:34;10.27;;;3.60;;
12707;SDS011;6418;50.824;4.718;2022-09-16T02:01:08;9.43;;;3.50;;
12707;SDS011;6418;50.824;4.718;2022-09-16T02:03:41;9.27;;;3.70;;
12707;SDS011;6418;50.824;4.718;2022-09-16T02:06:14;9.40;;;3.50;;
12707;SDS011;6418;50.824;4.718;2022-09-16T02:08:46;9.03;;;3.50;;
12707;SDS011;6418;50.824;4.718;2022-09-16T02:11:18;10.63;;;3.40;;
12707;SDS011;6418;50.824;4.718;2022-09-16T02:13:47;14.17;;;4.00;;
12707;SDS011;6418;50.824;4.718;2022-09-16T02:16:19;8.03;;;3.53;;
12707;SDS011;6418;50.824;4.718;2022-09-16T02:18:54;10.00;;;3.70;;
12707;SDS011;6418;50.824;4.718;2022-09-16T02:21:26;9.73;;;3.60;;
12707;SDS011;6418;50.824;4.718;2022-09-16T02:23:57;9.73;;;3.50;;
12707;SDS011;6418;50.824;4.718;2022-09-16T02:26:28;11.87;;;3.97;;
12707;SDS011;6418;50.824;4.718;2022-09-16T02:29:02;8.30;;;3.73;;
12707;SDS011;6418;50.824;4.718;2022-09-16T02:31:36;10.00;;;3.70;;
12707;SDS011;6418;50.824;4.718;2022-09-16T02:34:06;9.07;;;3.50;;
12707;SDS011;6418;50.824;4.718;2022-09-16T02:36:38;12.67;;;3.77;;
12707;SDS011;6418;50.824;4.718;2022-09-16T02:39:08;13.20;;;4.03;;
12707;SDS011;6418;50.824;4.718;2022-09-16T02:41:39;14.17;;;4.43;;
12707;SDS011;6418;50.824;4.718;2022-09-16T02:44:07;7.67;;;3.27;;
12707;SDS011;6418;50.824;4.718;2022-09-16T02:46:36;8.93;;;3.93;;
12707;SDS011;6418;50.824;4.718;2022-09-16T02:49:10;11.37;;;3.43;;
12707;SDS011;6418;50.824;4.718;2022-09-16T02:51:45;10.53;;;3.70;;
12707;SDS011;6418;50.824;4.718;2022-09-16T02:54:20;8.10;;;3.20;;
12707;SDS011;6418;50.824;4.718;2022-09-16T02:56:50;8.50;;;3.57;;
12707;SDS011;6418;50.824;4.718;2022-09-16T02:59:21;9.20;;;3.37;;
12707;SDS011;6418;50.824;4.718;2022-09-16T03:01:49;10.70;;;3.40;;
12707;SDS011;6418;50.824;4.718;2022-09-16T03:04:18;7.90;;;3.37;;
12707;SDS011;6418;50.824;4.718;2022-09-16T03:06:46;12.30;;;3.63;;
12707;SDS011;6418;50.824;4.718;2022-09-16T03:09:14;14.17;;;3.90;;
12707;SDS011;6418;50.824;4.718;2022-09-16T03:11:56;12.87;;;3.70;;
12707;SDS011;6418;50.824;4.718;2022-09-16T03:17:45;6.63;;;3.10;;
12707;SDS011;6418;50.824;4.718;2022-09-16T03:20:30;11.43;;;3.50;;
12707;SDS011;6418;50.824;4.718;2022-09-16T03:23:08;8.10;;;3.03;;
12707;SDS011;6418;50.824;4.718;2022-09-16T03:25:43;7.87;;;3.13;;
12707;SDS011;6418;50.824;4.718;2022-09-16T03:28:18;9.87;;;3.20;;
12707;SDS011;6418;50.824;4.718;2022-09-16T03:30:51;9.27;;;3.40;;
12707;SDS011;6418;50.824;4.718;2022-09-16T03:33:25;8.47;;;3.30;;
12707;SDS011;6418;50.824;4.718;2022-09-16T03:36:00;11.43;;;3.60;;
12707;SDS011;6418;50.824;4.718;2022-09-16T03:38:30;7.23;;;2.97;;
12707;SDS011;6418;50.824;4.718;2022-09-16T03:41:00;9.63;;;2.97;;
12707;SDS011;6418;50.824;4.718;2022-09-16T03:43:28;10.27;;;2.87;;
12707;SDS011;6418;50.824;4.718;2022-09-16T03:45:55;8.33;;;3.10;;
12707;SDS011;6418;50.824;4.718;2022-09-16T03:48:22;8.57;;;3.43;;
12707;SDS011;6418;50.824;4.718;2022-09-16T03:50:49;7.87;;;3.00;;
12707;SDS011;6418;50.824;4.718;2022-09-16T03:53:17;6.57;;;2.73;;
12707;SDS011;6418;50.824;4.718;2022-09-16T03:55:47;9.60;;;3.17;;
12707;SDS011;6418;50.824;4.718;2022-09-16T03:58:14;8.17;;;3.10;;
12707;SDS011;6418;50.824;4.718;2022-09-16T04:00:40;8.73;;;3.30;;
12707;SDS011;6418;50.824;4.718;2022-09-16T04:03:07;9.13;;;3.00;;
12707;SDS011;6418;50.824;4.718;2022-09-16T04:05:34;5.47;;;2.87;;
12707;SDS011;6418;50.824;4.718;2022-09-16T04:08:01;10.47;;;3.10;;
12707;SDS011;6418;50.824;4.718;2022-09-16T04:10:29;8.47;;;3.40;;
12707;SDS011;6418;50.824;4.718;2022-09-16T04:12:58;9.10;;;3.03;;
12707;SDS011;6418;50.824;4.718;2022-09-16T04:15:26;7.97;;;2.80;;
12707;SDS011;6418;50.824;4.718;2022-09-16T04:17:52;6.70;;;2.90;;
12707;SDS011;6418;50.824;4.718;2022-09-16T04:20:20;10.77;;;3.00;;
12707;SDS011;6418;50.824;4.718;2022-09-16T04:22:47;8.43;;;3.07;;
12707;SDS011;6418;50.824;4.718;2022-09-16T04:25:14;12.63;;;3.30;;
12707;SDS011;6418;50.824;4.718;2022-09-16T04:27:43;11.90;;;3.03;;
12707;SDS011;6418;50.824;4.718;2022-09-16T04:30:10;9.33;;;3.30;;
12707;SDS011;6418;50.824;4.718;2022-09-16T04:32:38;10.10;;;3.10;;
12707;SDS011;6418;50.824;4.718;2022-09-16T04:35:05;7.90;;;3.43;;
12707;SDS011;6418;50.824;4.718;2022-09-16T04:37:32;10.63;;;3.33;;
12707;SDS011;6418;50.824;4.718;2022-09-16T04:39:59;7.27;;;3.00;;
12707;SDS011;6418;50.824;4.718;2022-09-16T04:42:26;8.97;;;3.17;;
12707;SDS011;6418;50.824;4.718;2022-09-16T04:44:55;9.57;;;3.10;;
12707;SDS011;6418;50.824;4.718;2022-09-16T04:47:21;9.00;;;2.87;;
12707;SDS011;6418;50.824;4.718;2022-09-16T04:49:48;12.00;;;3.50;;
12707;SDS011;6418;50.824;4.718;2022-09-16T04:52:16;8.43;;;3.00;;
12707;SDS011;6418;50.824;4.718;2022-09-16T04:54:42;8.87;;;3.33;;
12707;SDS011;6418;50.824;4.718;2022-09-16T04:57:09;8.33;;;2.80;;
12707;SDS011;6418;50.824;4.718;2022-09-16T04:59:36;11.83;;;3.03;;
12707;SDS011;6418;50.824;4.718;2022-09-16T05:02:05;5.30;;;2.40;;
12707;SDS011;6418;50.824;4.718;2022-09-16T05:04:31;9.20;;;3.07;;
12707;SDS011;6418;50.824;4.718;2022-09-16T05:06:58;5.97;;;2.97;;
12707;SDS011;6418;50.824;4.718;2022-09-16T05:09:25;9.00;;;3.50;;
12707;SDS011;6418;50.824;4.718;2022-09-16T05:11:52;11.27;;;3.80;;
12707;SDS011;6418;50.824;4.718;2022-09-16T05:14:19;10.50;;;3.00;;
12707;SDS011;6418;50.824;4.718;2022-09-16T05:16:46;13.47;;;3.27;;
12707;SDS011;6418;50.824;4.718;2022-09-16T05:19:14;8.10;;;3.40;;
12707;SDS011;6418;50.824;4.718;2022-09-16T05:21:41;10.20;;;3.27;;
12707;SDS011;6418;50.824;4.718;2022-09-16T05:24:09;11.20;;;3.53;;
12707;SDS011;6418;50.824;4.718;2022-09-16T05:26:38;8.13;;;3.27;;
12707;SDS011;6418;50.824;4.718;2022-09-16T05:29:07;8.77;;;3.27;;
12707;SDS011;6418;50.824;4.718;2022-09-16T05:31:37;15.50;;;3.67;;
12707;SDS011;6418;50.824;4.718;2022-09-16T05:34:05;9.17;;;3.37;;
12707;SDS011;6418;50.824;4.718;2022-09-16T05:36:38;11.67;;;3.47;;
12707;SDS011;6418;50.824;4.718;2022-09-16T05:39:07;12.57;;;3.90;;
12707;SDS011;6418;50.824;4.718;2022-09-16T05:41:35;11.03;;;3.57;;
12707;SDS011;6418;50.824;4.718;2022-09-16T05:44:02;9.30;;;3.70;;
12707;SDS011;6418;50.824;4.718;2022-09-16T05:46:30;13.63;;;3.50;;
12707;SDS011;6418;50.824;4.718;2022-09-16T05:48:57;9.33;;;3.73;;
12707;SDS011;6418;50.824;4.718;2022-09-16T05:51:24;9.50;;;3.60;;
12707;SDS011;6418;50.824;4.718;2022-09-16T05:53:53;10.23;;;3.50;;
12707;SDS011;6418;50.824;4.718;2022-09-16T05:56:21;13.30;;;3.53;;
12707;SDS011;6418;50.824;4.718;2022-09-16T05:58:50;7.97;;;3.10;;
12707;SDS011;6418;50.824;4.718;2022-09-16T06:01:18;10.67;;;3.50;;
12707;SDS011;6418;50.824;4.718;2022-09-16T06:03:47;10.47;;;3.80;;
12707;SDS011;6418;50.824;4.718;2022-09-16T06:06:17;8.83;;;3.50;;
12707;SDS011;6418;50.824;4.718;2022-09-16T06:08:47;11.00;;;3.70;;
12707;SDS011;6418;50.824;4.718;2022-09-16T06:11:16;13.67;;;3.70;;
12707;SDS011;6418;50.824;4.718;2022-09-16T06:13:44;11.70;;;3.60;;
12707;SDS011;6418;50.824;4.718;2022-09-16T06:16:10;8.13;;;3.40;;
12707;SDS011;6418;50.824;4.718;2022-09-16T06:18:38;10.27;;;4.00;;
12707;SDS011;6418;50.824;4.718;2022-09-16T06:21:06;10.30;;;3.77;;
12707;SDS011;6418;50.824;4.718;2022-09-16T06:23:34;10.97;;;3.80;;
12707;SDS011;6418;50.824;4.718;2022-09-16T06:26:02;9.43;;;3.60;;
12707;SDS011;6418;50.824;4.718;2022-09-16T06:28:32;9.40;;;3.57;;
12707;SDS011;6418;50.824;4.718;2022-09-16T06:31:00;10.90;;;3.60;;
12707;SDS011;6418;50.824;4.718;2022-09-16T06:33:28;10.77;;;3.80;;
12707;SDS011;6418;50.824;4.718;2022-09-16T06:35:55;7.47;;;3.70;;
12707;SDS011;6418;50.824;4.718;2022-09-16T06:38:22;7.83;;;3.80;;
12707;SDS011;6418;50.824;4.718;2022-09-16T06:40:49;8.63;;;3.57;;
12707;SDS011;6418;50.824;4.718;2022-09-16T06:43:16;10.07;;;3.50;;
12707;SDS011;6418;50.824;4.718;2022-09-16T06:45:44;9.90;;;3.50;;
12707;SDS011;6418;50.824;4.718;2022-09-16T06:48:11;7.80;;;3.27;;
12707;SDS011;6418;50.824;4.718;2022-09-16T06:50:38;6.30;;;3.07;;
12707;SDS011;6418;50.824;4.718;2022-09-16T06:53:05;6.67;;;3.47;;
12707;SDS011;6418;50.824;4.718;2022-09-16T06:55:32;10.77;;;3.20;;
12707;SDS011;6418;50.824;4.718;2022-09-16T06:58:00;6.53;;;3.23;;
12707;SDS011;6418;50.824;4.718;2022-09-16T07:00:27;10.53;;;3.33;;
12707;SDS011;6418;50.824;4.718;2022-09-16T07:02:55;8.20;;;3.03;;
12707;SDS011;6418;50.824;4.718;2022-09-16T07:05:22;5.47;;;2.80;;
12707;SDS011;6418;50.824;4.718;2022-09-16T07:07:49;8.03;;;3.07;;
12707;SDS011;6418;50.824;4.718;2022-09-16T07:10:17;8.90;;;3.00;;
12707;SDS011;6418;50.824;4.718;2022-09-16T07:12:43;5.37;;;2.77;;
12707;SDS011;6418;50.824;4.718;2022-09-16T07:15:10;6.20;;;3.20;;
12707;SDS011;6418;50.824;4.718;2022-09-16T07:17:37;8.73;;;3.07;;
12707;SDS011;6418;50.824;4.718;2022-09-16T07:20:06;8.00;;;3.10;;
12707;SDS011;6418;50.824;4.718;2022-09-16T07:22:33;8.77;;;3.07;;
12707;SDS011;6418;50.824;4.718;2022-09-16T07:25:00;7.13;;;3.10;;
12707;SDS011;6418;50.824;4.718;2022-09-16T07:27:28;7.10;;;2.67;;
12707;SDS011;6418;50.824;4.718;2022-09-16T07:29:56;9.77;;;3.23;;
12707;SDS011;6418;50.824;4.718;2022-09-16T07:32:22;12.00;;;3.13;;
12707;SDS011;6418;50.824;4.718;2022-09-16T07:34:49;9.83;;;3.20;;
12707;SDS011;6418;50.824;4.718;2022-09-16T07:37:19;5.30;;;2.80;;
12707;SDS011;6418;50.824;4.718;2022-09-16T07:39:46;4.60;;;2.83;;
12707;SDS011;6418;50.824;4.718;2022-09-16T07:42:13;9.23;;;3.17;;
12707;SDS011;6418;50.824;4.718;2022-09-16T07:44:40;6.83;;;2.90;;
12707;SDS011;6418;50.824;4.718;2022-09-16T07:47:07;3.97;;;2.50;;
12707;SDS011;6418;50.824;4.718;2022-09-16T07:49:34;6.57;;;2.87;;
12707;SDS011;6418;50.824;4.718;2022-09-16T07:52:01;12.33;;;3.23;;
12707;SDS011;6418;50.824;4.718;2022-09-16T07:54:29;9.47;;;3.20;;
12707;SDS011;6418;50.824;4.718;2022-09-16T07:56:56;8.90;;;3.20;;
12707;SDS011;6418;50.824;4.718;2022-09-16T07:59:23;12.77;;;3.50;;
12707;SDS011;6418;50.824;4.718;2022-09-16T08:01:49;11.73;;;3.90;;
12707;SDS011;6418;50.824;4.718;2022-09-16T08:04:16;9.57;;;3.73;;
12707;SDS011;6418;50.824;4.718;2022-09-16T08:06:44;7.50;;;3.50;;
12707;SDS011;6418;50.824;4.718;2022-09-16T08:09:11;11.20;;;3.73;;
12707;SDS011;6418;50.824;4.718;2022-09-16T08:11:40;9.30;;;3.53;;
12707;SDS011;6418;50.824;4.718;2022-09-16T08:14:07;8.67;;;3.60;;
12707;SDS011;6418;50.824;4.718;2022-09-16T08:16:34;8.43;;;3.97;;
12707;SDS011;6418;50.824;4.718;2022-09-16T08:19:01;9.03;;;3.83;;
12707;SDS011;6418;50.824;4.718;2022-09-16T08:21:28;9.60;;;4.10;;
12707;SDS011;6418;50.824;4.718;2022-09-16T08:23:55;10.60;;;3.77;;
12707;SDS011;6418;50.824;4.718;2022-09-16T08:26:22;7.80;;;3.47;;
12707;SDS011;6418;50.824;4.718;2022-09-16T08:28:51;6.30;;;3.43;;
12707;SDS011;6418;50.824;4.718;2022-09-16T08:31:18;7.67;;;3.03;;
12707;SDS011;6418;50.824;4.718;2022-09-16T08:33:45;6.93;;;2.80;;
12707;SDS011;6418;50.824;4.718;2022-09-16T08:36:13;9.00;;;3.37;;
12707;SDS011;6418;50.824;4.718;2022-09-16T08:38:42;7.47;;;3.17;;
12707;SDS011;6418;50.824;4.718;2022-09-16T08:44:04;8.43;;;3.33;;
12707;SDS011;6418;50.824;4.718;2022-09-16T08:46:50;7.20;;;3.20;;
12707;SDS011;6418;50.824;4.718;2022-09-16T08:49:20;7.40;;;3.30;;
12707;SDS011;6418;50.824;4.718;2022-09-16T08:51:52;5.53;;;3.07;;
12707;SDS011;6418;50.824;4.718;2022-09-16T08:54:23;9.07;;;3.80;;
12707;SDS011;6418;50.824;4.718;2022-09-16T08:56:53;8.27;;;3.30;;
12707;SDS011;6418;50.824;4.718;2022-09-16T08:59:24;8.77;;;3.37;;
12707;SDS011;6418;50.824;4.718;2022-09-16T09:01:56;9.27;;;3.10;;
12707;SDS011;6418;50.824;4.718;2022-09-16T09:04:34;8.00;;;2.70;;
12707;SDS011;6418;50.824;4.718;2022-09-16T09:07:03;6.37;;;2.50;;
12707;SDS011;6418;50.824;4.718;2022-09-16T09:09:43;6.17;;;2.47;;
12707;SDS011;6418;50.824;4.718;2022-09-16T09:12:18;7.93;;;2.60;;
12707;SDS011;6418;50.824;4.718;2022-09-16T09:14:56;8.37;;;2.73;;
12707;SDS011;6418;50.824;4.718;2022-09-16T09:17:32;12.83;;;3.27;;
12707;SDS011;6418;50.824;4.718;2022-09-16T09:20:12;8.10;;;3.00;;
12707;SDS011;6418;50.824;4.718;2022-09-16T09:22:52;9.80;;;3.03;;
12707;SDS011;6418;50.824;4.718;2022-09-16T09:25:35;8.80;;;3.10;;
12707;SDS011;6418;50.824;4.718;2022-09-16T09:28:14;6.70;;;3.17;;
12707;SDS011;6418;50.824;4.718;2022-09-16T09:30:51;6.33;;;2.80;;
12707;SDS011;6418;50.824;4.718;2022-09-16T09:33:28;5.67;;;2.57;;
12707;SDS011;6418;50.824;4.718;2022-09-16T09:36:19;7.77;;;2.87;;
12707;SDS011;6418;50.824;4.718;2022-09-16T09:38:58;9.20;;;2.70;;
12707;SDS011;6418;50.824;4.718;2022-09-16T09:41:38;6.83;;;2.73;;
12707;SDS011;6418;50.824;4.718;2022-09-16T09:44:18;5.80;;;2.53;;
12707;SDS011;6418;50.824;4.718;2022-09-16T09:47:00;5.23;;;2.13;;
12707;SDS011;6418;50.824;4.718;2022-09-16T09:49:33;8.13;;;2.40;;
12707;SDS011;6418;50.824;4.718;2022-09-16T09:52:05;8.13;;;3.13;;
12707;SDS011;6418;50.824;4.718;2022-09-16T09:54:38;6.07;;;2.57;;
12707;SDS011;6418;50.824;4.718;2022-09-16T09:57:10;8.77;;;2.50;;
12707;SDS011;6418;50.824;4.718;2022-09-16T09:59:42;6.97;;;2.73;;
12707;SDS011;6418;50.824;4.718;2022-09-16T10:02:15;8.97;;;2.90;;
12707;SDS011;6418;50.824;4.718;2022-09-16T10:04:43;8.03;;;2.93;;
12707;SDS011;6418;50.824;4.718;2022-09-16T10:07:10;5.70;;;2.70;;
12707;SDS011;6418;50.824;4.718;2022-09-16T10:09:44;5.37;;;2.47;;
12707;SDS011;6418;50.824;4.718;2022-09-16T10:12:24;8.23;;;2.50;;
12707;SDS011;6418;50.824;4.718;2022-09-16T10:14:53;6.67;;;2.70;;
12707;SDS011;6418;50.824;4.718;2022-09-16T10:17:21;5.90;;;2.97;;
12707;SDS011;6418;50.824;4.718;2022-09-16T10:19:51;5.90;;;2.17;;
12707;SDS011;6418;50.824;4.718;2022-09-16T10:22:23;7.33;;;2.23;;
12707;SDS011;6418;50.824;4.718;2022-09-16T10:24:52;4.97;;;2.13;;
12707;SDS011;6418;50.824;4.718;2022-09-16T10:27:21;4.83;;;2.30;;
12707;SDS011;6418;50.824;4.718;2022-09-16T10:30:04;5.53;;;2.30;;
12707;SDS011;6418;50.824;4.718;2022-09-16T10:32:37;5.57;;;2.27;;
12707;SDS011;6418;50.824;4.718;2022-09-16T10:35:13;4.50;;;1.60;;
12707;SDS011;6418;50.824;4.718;2022-09-16T10:37:46;3.60;;;2.10;;
12707;SDS011;6418;50.824;4.718;2022-09-16T10:40:17;2.43;;;1.57;;
12707;SDS011;6418;50.824;4.718;2022-09-16T10:42:45;9.93;;;2.13;;
12707;SDS011;6418;50.824;4.718;2022-09-16T10:45:13;8.27;;;2.27;;
12707;SDS011;6418;50.824;4.718;2022-09-16T10:47:46;7.70;;;2.20;;
12707;SDS011;6418;50.824;4.718;2022-09-16T10:50:17;10.30;;;2.43;;
12707;SDS011;6418;50.824;4.718;2022-09-16T10:52:45;7.90;;;2.50;;
12707;SDS011;6418;50.824;4.718;2022-09-16T10:55:20;3.03;;;1.70;;
12707;SDS011;6418;50.824;4.718;2022-09-16T10:57:49;2.53;;;1.40;;
12707;SDS011;6418;50.824;4.718;2022-09-16T11:00:17;2.23;;;1.43;;
12707;SDS011;6418;50.824;4.718;2022-09-16T11:02:51;5.13;;;1.93;;
12707;SDS011;6418;50.824;4.718;2022-09-16T11:05:32;5.30;;;2.33;;
12707;SDS011;6418;50.824;4.718;2022-09-16T11:08:09;9.03;;;2.43;;
12707;SDS011;6418;50.824;4.718;2022-09-16T11:10:43;3.80;;;2.10;;
12707;SDS011;6418;50.824;4.718;2022-09-16T11:13:28;7.00;;;2.30;;
12707;SDS011;6418;50.824;4.718;2022-09-16T11:16:12;2.33;;;2.10;;
12707;SDS011;6418;50.824;4.718;2022-09-16T11:18:51;5.53;;;2.73;;
12707;SDS011;6418;50.824;4.718;2022-09-16T11:21:30;4.63;;;2.30;;
12707;SDS011;6418;50.824;4.718;2022-09-16T11:24:21;3.13;;;2.37;;
12707;SDS011;6418;50.824;4.718;2022-09-16T11:27:10;6.07;;;2.90;;
12707;SDS011;6418;50.824;4.718;2022-09-16T11:29:49;4.17;;;2.83;;
12707;SDS011;6418;50.824;4.718;2022-09-16T11:32:29;6.23;;;2.93;;
12707;SDS011;6418;50.824;4.718;2022-09-16T11:35:21;3.73;;;2.90;;
12707;SDS011;6418;50.824;4.718;2022-09-16T11:38:01;4.33;;;2.83;;
12707;SDS011;6418;50.824;4.718;2022-09-16T11:40:41;4.00;;;2.10;;
12707;SDS011;6418;50.824;4.718;2022-09-16T11:43:37;6.40;;;3.00;;
12707;SDS011;6418;50.824;4.718;2022-09-16T11:46:25;8.60;;;2.87;;
12707;SDS011;6418;50.824;4.718;2022-09-16T11:49:02;9.97;;;2.70;;
12707;SDS011;6418;50.824;4.718;2022-09-16T11:51:45;4.70;;;2.60;;
12707;SDS011;6418;50.824;4.718;2022-09-16T11:54:30;5.70;;;2.90;;
12707;SDS011;6418;50.824;4.718;2022-09-16T11:57:09;7.63;;;3.10;;
12707;SDS011;6418;50.824;4.718;2022-09-16T11:59:40;5.03;;;2.97;;
12707;SDS011;6418;50.824;4.718;2022-09-16T12:02:19;3.93;;;2.70;;
12707;SDS011;6418;50.824;4.718;2022-09-16T12:04:52;6.50;;;2.80;;
12707;SDS011;6418;50.824;4.718;2022-09-16T12:07:25;6.70;;;3.00;;
12707;SDS011;6418;50.824;4.718;2022-09-16T12:09:58;7.33;;;3.50;;
12707;SDS011;6418;50.824;4.718;2022-09-16T12:12:31;4.07;;;2.70;;
12707;SDS011;6418;50.824;4.718;2022-09-16T12:15:02;6.33;;;3.27;;
12707;SDS011;6418;50.824;4.718;2022-09-16T12:17:35;7.07;;;2.80;;
12707;SDS011;6418;50.824;4.718;2022-09-16T12:20:11;6.20;;;3.17;;
12707;SDS011;6418;50.824;4.718;2022-09-16T12:22:43;6.13;;;2.57;;
12707;SDS011;6418;50.824;4.718;2022-09-16T12:25:15;7.77;;;2.67;;
12707;SDS011;6418;50.824;4.718;2022-09-16T12:27:48;11.57;;;3.40;;
12707;SDS011;6418;50.824;4.718;2022-09-16T12:30:18;5.90;;;2.77;;
12707;SDS011;6418;50.824;4.718;2022-09-16T12:32:53;5.40;;;2.77;;
12707;SDS011;6418;50.824;4.718;2022-09-16T12:35:27;8.00;;;2.73;;
12707;SDS011;6418;50.824;4.718;2022-09-16T12:37:58;5.67;;;2.70;;
12707;SDS011;6418;50.824;4.718;2022-09-16T12:40:25;10.10;;;2.97;;
12707;SDS011;6418;50.824;4.718;2022-09-16T12:43:09;8.67;;;3.17;;
12707;SDS011;6418;50.824;4.718;2022-09-16T12:52:35;6.90;;;2.47;;
12707;SDS011;6418;50.824;4.718;2022-09-16T12:55:27;2.90;;;2.07;;
12707;SDS011;6418;50.824;4.718;2022-09-16T12:58:14;7.37;;;2.53;;
12707;SDS011;6418;50.824;4.718;2022-09-16T13:01:05;4.77;;;2.50;;
12707;SDS011;6418;50.824;4.718;2022-09-16T13:03:43;2.83;;;1.93;;
12707;SDS011;6418;50.824;4.718;2022-09-16T13:06:17;8.00;;;2.50;;
12707;SDS011;6418;50.824;4.718;2022-09-16T13:08:50;5.50;;;2.20;;
12707;SDS011;6418;50.824;4.718;2022-09-16T13:11:21;8.53;;;2.43;;
12707;SDS011;6418;50.824;4.718;2022-09-16T13:13:50;3.03;;;1.70;;
12707;SDS011;6418;50.824;4.718;2022-09-16T13:16:27;7.77;;;2.60;;
12707;SDS011;6418;50.824;4.718;2022-09-16T13:21:56;6.47;;;3.10;;
12707;SDS011;6418;50.824;4.718;2022-09-16T13:24:27;6.40;;;2.40;;
12707;SDS011;6418;50.824;4.718;2022-09-16T13:27:12;4.23;;;2.23;;
12707;SDS011;6418;50.824;4.718;2022-09-16T13:29:49;2.93;;;2.07;;
12707;SDS011;6418;50.824;4.718;2022-09-16T13:35:19;5.23;;;2.03;;
12707;SDS011;6418;50.824;4.718;2022-09-16T13:37:49;5.30;;;1.90;;
12707;SDS011;6418;50.824;4.718;2022-09-16T13:40:19;5.13;;;2.00;;
12707;SDS011;6418;50.824;4.718;2022-09-16T13:42:49;3.73;;;2.17;;
12707;SDS011;6418;50.824;4.718;2022-09-16T13:45:29;3.70;;;2.30;;
12707;SDS011;6418;50.824;4.718;2022-09-16T13:47:58;5.87;;;2.13;;
12707;SDS011;6418;50.824;4.718;2022-09-16T13:50:31;6.40;;;2.47;;
12707;SDS011;6418;50.824;4.718;2022-09-16T13:53:07;5.83;;;2.30;;
12707;SDS011;6418;50.824;4.718;2022-09-16T13:55:35;21.37;;;3.10;;
12707;SDS011;6418;50.824;4.718;2022-09-16T13:58:08;5.40;;;2.70;;
12707;SDS011;6418;50.824;4.718;2022-09-16T14:00:45;6.63;;;2.77;;
12707;SDS011;6418;50.824;4.718;2022-09-16T14:06:30;5.93;;;2.50;;
12707;SDS011;6418;50.824;4.718;2022-09-16T14:09:15;6.63;;;2.50;;
12707;SDS011;6418;50.824;4.718;2022-09-16T14:11:52;5.37;;;2.10;;
12707;SDS011;6418;50.824;4.718;2022-09-16T14:14:27;3.50;;;2.00;;
12707;SDS011;6418;50.824;4.718;2022-09-16T14:16:59;6.10;;;2.10;;
12707;SDS011;6418;50.824;4.718;2022-09-16T14:19:30;6.13;;;2.40;;
12707;SDS011;6418;50.824;4.718;2022-09-16T14:22:01;10.17;;;2.50;;
12707;SDS011;6418;50.824;4.718;2022-09-16T14:24:33;5.70;;;2.40;;
12707;SDS011;6418;50.824;4.718;2022-09-16T14:27:01;8.60;;;2.20;;
12707;SDS011;6418;50.824;4.718;2022-09-16T14:29:30;7.23;;;2.63;;
12707;SDS011;6418;50.824;4.718;2022-09-16T14:31:57;6.57;;;2.03;;
12707;SDS011;6418;50.824;4.718;2022-09-16T14:34:25;5.33;;;2.70;;
12707;SDS011;6418;50.824;4.718;2022-09-16T14:36:57;5.23;;;2.10;;
12707;SDS011;6418;50.824;4.718;2022-09-16T14:39:25;4.13;;;1.90;;
12707;SDS011;6418;50.824;4.718;2022-09-16T14:41:54;2.60;;;1.87;;
12707;SDS011;6418;50.824;4.718;2022-09-16T14:44:24;4.70;;;1.83;;
12707;SDS011;6418;50.824;4.718;2022-09-16T14:46:58;8.00;;;2.10;;
12707;SDS011;6418;50.824;4.718;2022-09-16T14:49:28;5.43;;;2.07;;
12707;SDS011;6418;50.824;4.718;2022-09-16T14:51:56;6.07;;;1.87;;
12707;SDS011;6418;50.824;4.718;2022-09-16T14:54:26;4.20;;;2.20;;
12707;SDS011;6418;50.824;4.718;2022-09-16T14:56:54;7.33;;;2.20;;
12707;SDS011;6418;50.824;4.718;2022-09-16T14:59:22;3.57;;;1.70;;
12707;SDS011;6418;50.824;4.718;2022-09-16T15:01:53;3.00;;;1.87;;
12707;SDS011;6418;50.824;4.718;2022-09-16T15:04:24;3.90;;;1.47;;
12707;SDS011;6418;50.824;4.718;2022-09-16T15:06:56;4.73;;;1.80;;
12707;SDS011;6418;50.824;4.718;2022-09-16T15:09:32;3.80;;;1.83;;
12707;SDS011;6418;50.824;4.718;2022-09-16T15:12:12;6.47;;;1.80;;
12707;SDS011;6418;50.824;4.718;2022-09-16T15:14:50;1.87;;;1.20;;
12707;SDS011;6418;50.824;4.718;2022-09-16T15:17:18;2.53;;;1.57;;
12707;SDS011;6418;50.824;4.718;2022-09-16T15:19:49;3.27;;;1.73;;
12707;SDS011;6418;50.824;4.718;2022-09-16T15:22:19;3.73;;;1.43;;
12707;SDS011;6418;50.824;4.718;2022-09-16T15:24:49;2.03;;;1.50;;
12707;SDS011;6418;50.824;4.718;2022-09-16T15:27:25;2.53;;;1.30;;
12707;SDS011;6418;50.824;4.718;2022-09-16T15:29:54;2.53;;;1.27;;
12707;SDS011;6418;50.824;4.718;2022-09-16T15:32:24;1.73;;;1.37;;
12707;SDS011;6418;50.824;4.718;2022-09-16T15:35:09;3.60;;;1.63;;
12707;SDS011;6418;50.824;4.718;2022-09-16T15:37:40;1.60;;;1.10;;
12707;SDS011;6418;50.824;4.718;2022-09-16T15:40:21;4.83;;;1.33;;
12707;SDS011;6418;50.824;4.718;2022-09-16T15:43:00;1.53;;;0.90;;
12707;SDS011;6418;50.824;4.718;2022-09-16T15:45:29;1.47;;;1.30;;
12707;SDS011;6418;50.824;4.718;2022-09-16T15:47:57;2.13;;;1.03;;
12707;SDS011;6418;50.824;4.718;2022-09-16T15:50:27;5.40;;;1.50;;